Terminal Aerodrome Forecast
Issued by NWS Twin Cities, MN

Home | Current Version | Previous Version | Graphics & Text | Print | Product List | Glossary On
Versions: 1 2 3 4 5 6 7 8 9 10 11 12 13 14 15 16 17 18 19 20 21 22 23 24 25 26 27 28 29 30
000
FTUS43 KMPX 231354 AAA
TAFMSP
TAF AMD
KMSP 231354Z 2314/2418 19013G20KT P6SM -SHRA SCT050 OVC090
     FM231800 18015G22KT P6SM VCSH BKN040 OVC100
     FM232000 19014G21KT P6SM -SHRA SCT025 OVC050
      TEMPO 2321/2323 4SM -TSRA OVC040CB
     FM240100 18008G15KT 6SM -SHRA OVC050
     FM240600 20005KT 6SM BR SCT090=

USA.gov is the U.S. government's official web portal to all federal, state and local government web resources and services.